Terminal Aerodrome Forecast
Issued by NWS Mt. Holly, NJ

Current Version | Previous Version | Text Only | Print | Product List | Glossary On
Versions: 1 2 3 4 5 6 7 8 9 10 11 12 13 14 15 16 17 18 19 20 21 22 23 24 25 26 27 28 29 30 31 32 33
000
FTUS41 KPHI 242336
TAFPHL
TAF
KPHL 242336Z 2500/2606 04005KT P6SM VCSH SCT020 OVC045
      TEMPO 2501/2504 BKN015 OVC035
     FM250400 07006KT 6SM BR OVC020
     FM250600 08007KT 2SM -RA BR OVC015
     FM250800 11007KT 2SM -RA BR OVC005
     FM251800 VRB03KT 2SM -RA BR OVC008
     FM251900 19004KT P6SM OVC010
     FM252100 26006KT P6SM BKN025
     FM260000 29006KT P6SM SCT060=

USA.gov is the U.S. government's official web portal to all federal, state and local government web resources and services.